sensor_id;sensor_type;location;lat;lon;timestamp;pressure;altitude;pressure_sealevel;temperature;humidity
71791;BME280;59638;52.126;5.434;2023-05-12T00:02:24;101867.41;;;11.14;100.00
71791;BME280;59638;52.126;5.434;2023-05-12T00:04:52;101862.13;;;11.14;100.00
71791;BME280;59638;52.126;5.434;2023-05-12T00:07:18;101858.53;;;11.15;100.00
71791;BME280;59638;52.126;5.434;2023-05-12T00:09:45;101859.63;;;11.13;100.00
71791;BME280;59638;52.126;5.434;2023-05-12T00:12:11;101856.13;;;11.12;100.00
71791;BME280;59638;52.126;5.434;2023-05-12T00:14:38;101858.78;;;11.12;100.00
71791;BME280;59638;52.126;5.434;2023-05-12T00:17:04;101853.72;;;11.09;100.00
71791;BME280;59638;52.126;5.434;2023-05-12T00:19:32;101858.16;;;11.09;100.00
71791;BME280;59638;52.126;5.434;2023-05-12T00:21:58;101851.31;;;11.06;100.00
71791;BME280;59638;52.126;5.434;2023-05-12T00:24:25;101853.94;;;11.06;100.00
71791;BME280;59638;52.126;5.434;2023-05-12T00:26:52;101848.66;;;11.06;100.00
71791;BME280;59638;52.126;5.434;2023-05-12T00:29:19;101846.03;;;11.06;100.00
71791;BME280;59638;52.126;5.434;2023-05-12T00:31:45;101846.03;;;11.06;100.00
71791;BME280;59638;52.126;5.434;2023-05-12T00:34:12;101840.88;;;11.05;100.00
71791;BME280;59638;52.126;5.434;2023-05-12T00:36:38;101843.63;;;11.03;100.00
71791;BME280;59638;52.126;5.434;2023-05-12T00:39:05;101838.34;;;11.03;100.00
71791;BME280;59638;52.126;5.434;2023-05-12T00:41:31;101838.34;;;11.03;100.00
71791;BME280;59638;52.126;5.434;2023-05-12T00:43:58;101842.78;;;11.03;100.00
71791;BME280;59638;52.126;5.434;2023-05-12T00:46:24;101838.34;;;11.03;100.00
71791;BME280;59638;52.126;5.434;2023-05-12T00:48:51;101834.00;;;11.02;100.00
71791;BME280;59638;52.126;5.434;2023-05-12T00:51:17;101838.34;;;11.03;100.00
71791;BME280;59638;52.126;5.434;2023-05-12T00:53:44;101835.78;;;11.02;100.00
71791;BME280;59638;52.126;5.434;2023-05-12T00:56:17;101835.91;;;11.00;100.00
71791;BME280;59638;52.126;5.434;2023-05-12T00:58:44;101826.56;;;10.96;100.00
71791;BME280;59638;52.126;5.434;2023-05-12T01:01:11;101833.72;;;10.94;100.00
71791;BME280;59638;52.126;5.434;2023-05-12T01:03:37;101834.47;;;10.96;100.00
71791;BME280;59638;52.126;5.434;2023-05-12T01:06:10;101828.25;;;10.97;100.00
71791;BME280;59638;52.126;5.434;2023-05-12T01:08:38;101822.94;;;10.97;100.00
71791;BME280;59638;52.126;5.434;2023-05-12T01:11:04;101819.47;;;10.97;100.00
71791;BME280;59638;52.126;5.434;2023-05-12T01:13:31;101819.56;;;10.95;100.00
71791;BME280;59638;52.126;5.434;2023-05-12T01:15:59;101805.63;;;10.93;100.00
71791;BME280;59638;52.126;5.434;2023-05-12T01:18:28;101816.91;;;10.95;100.00
71791;BME280;59638;52.126;5.434;2023-05-12T01:20:57;101816.00;;;10.96;100.00
71791;BME280;59638;52.126;5.434;2023-05-12T01:23:35;101805.44;;;10.96;100.00
71791;BME280;59638;52.126;5.434;2023-05-12T01:26:05;101812.38;;;10.97;100.00
71791;BME280;59638;52.126;5.434;2023-05-12T01:28:34;101798.69;;;10.92;100.00
71791;BME280;59638;52.126;5.434;2023-05-12T01:31:02;101805.63;;;10.93;100.00
71791;BME280;59638;52.126;5.434;2023-05-12T01:33:29;101814.41;;;10.94;100.00
71791;BME280;59638;52.126;5.434;2023-05-12T01:35:56;101802.03;;;10.94;100.00
71791;BME280;59638;52.126;5.434;2023-05-12T01:38:22;101804.56;;;10.96;100.00
71791;BME280;59638;52.126;5.434;2023-05-12T01:40:48;101802.03;;;10.94;100.00
71791;BME280;59638;52.126;5.434;2023-05-12T01:43:15;101806.47;;;10.94;100.00
71791;BME280;59638;52.126;5.434;2023-05-12T01:45:41;101806.25;;;10.97;100.00
71791;BME280;59638;52.126;5.434;2023-05-12T01:48:08;101800.03;;;10.98;100.00
71791;BME280;59638;52.126;5.434;2023-05-12T01:50:34;101807.56;;;11.02;100.00
71791;BME280;59638;52.126;5.434;2023-05-12T01:53:01;101812.97;;;11.01;100.00
71791;BME280;59638;52.126;5.434;2023-05-12T01:55:27;101803.25;;;11.01;100.00
71791;BME280;59638;52.126;5.434;2023-05-12T01:57:53;101814.56;;;11.03;100.00
71791;BME280;59638;52.126;5.434;2023-05-12T02:00:20;101805.81;;;11.03;100.00
71791;BME280;59638;52.126;5.434;2023-05-12T02:02:47;101803.03;;;11.04;100.00
71791;BME280;59638;52.126;5.434;2023-05-12T02:05:13;101808.31;;;11.04;100.00
71791;BME280;59638;52.126;5.434;2023-05-12T02:07:40;101801.34;;;11.03;100.00
71791;BME280;59638;52.126;5.434;2023-05-12T02:10:07;101806.63;;;11.03;100.00
71791;BME280;59638;52.126;5.434;2023-05-12T02:12:34;101808.31;;;11.04;100.00
71791;BME280;59638;52.126;5.434;2023-05-12T02:15:01;101813.81;;;11.01;100.00
71791;BME280;59638;52.126;5.434;2023-05-12T02:17:27;101810.47;;;10.99;100.00
71791;BME280;59638;52.126;5.434;2023-05-12T02:19:54;101801.56;;;11.00;100.00
71791;BME280;59638;52.126;5.434;2023-05-12T02:22:20;101797.00;;;11.02;100.00
71791;BME280;59638;52.126;5.434;2023-05-12T02:24:47;101799.66;;;11.02;100.00
71791;BME280;59638;52.126;5.434;2023-05-12T02:27:13;101800.72;;;11.00;100.00
71791;BME280;59638;52.126;5.434;2023-05-12T02:29:39;101800.72;;;11.00;100.00
71791;BME280;59638;52.126;5.434;2023-05-12T02:32:07;101806.00;;;11.00;100.00
71791;BME280;59638;52.126;5.434;2023-05-12T02:34:34;101801.56;;;11.00;100.00
71791;BME280;59638;52.126;5.434;2023-05-12T02:37:00;101797.97;;;11.01;100.00
71791;BME280;59638;52.126;5.434;2023-05-12T02:39:26;101792.09;;;10.98;100.00
71791;BME280;59638;52.126;5.434;2023-05-12T02:41:53;101794.84;;;10.96;100.00
71791;BME280;59638;52.126;5.434;2023-05-12T02:44:19;101794.00;;;10.96;100.00
71791;BME280;59638;52.126;5.434;2023-05-12T02:46:47;101789.56;;;10.96;100.00
71791;BME280;59638;52.126;5.434;2023-05-12T02:49:14;101795.69;;;10.97;100.00
71791;BME280;59638;52.126;5.434;2023-05-12T02:51:40;101793.16;;;10.95;100.00
71791;BME280;59638;52.126;5.434;2023-05-12T02:54:06;101782.59;;;10.95;100.00
71791;BME280;59638;52.126;5.434;2023-05-12T02:56:33;101791.34;;;10.96;100.00
71791;BME280;59638;52.126;5.434;2023-05-12T02:58:59;101786.94;;;10.96;100.00
71791;BME280;59638;52.126;5.434;2023-05-12T03:01:26;101791.47;;;10.94;100.00
71791;BME280;59638;52.126;5.434;2023-05-12T03:03:52;101787.78;;;10.97;100.00
71791;BME280;59638;52.126;5.434;2023-05-12T03:06:19;101790.50;;;10.95;100.00
71791;BME280;59638;52.126;5.434;2023-05-12T03:08:45;101793.16;;;10.95;100.00
71791;BME280;59638;52.126;5.434;2023-05-12T03:11:12;101795.69;;;10.97;100.00
71791;BME280;59638;52.126;5.434;2023-05-12T03:13:38;101789.56;;;10.96;100.00
71791;BME280;59638;52.126;5.434;2023-05-12T03:16:04;101783.19;;;10.99;100.00
71791;BME280;59638;52.126;5.434;2023-05-12T03:18:31;101782.38;;;10.98;100.00
71791;BME280;59638;52.126;5.434;2023-05-12T03:20:58;101779.00;;;10.96;100.00
71791;BME280;59638;52.126;5.434;2023-05-12T03:23:24;101777.06;;;10.98;100.00
71791;BME280;59638;52.126;5.434;2023-05-12T03:25:50;101780.44;;;11.00;100.00
71791;BME280;59638;52.126;5.434;2023-05-12T03:28:17;101777.78;;;11.00;100.00
71791;BME280;59638;52.126;5.434;2023-05-12T03:30:43;101778.75;;;10.99;100.00
71791;BME280;59638;52.126;5.434;2023-05-12T03:33:10;101771.78;;;10.98;100.00
71791;BME280;59638;52.126;5.434;2023-05-12T03:35:36;101769.16;;;10.98;100.00
71791;BME280;59638;52.126;5.434;2023-05-12T03:38:02;101776.81;;;11.01;100.00
71791;BME280;59638;52.126;5.434;2023-05-12T03:40:29;101774.94;;;11.03;100.00
71791;BME280;59638;52.126;5.434;2023-05-12T03:42:55;101767.84;;;11.04;100.00
71791;BME280;59638;52.126;5.434;2023-05-12T03:45:22;101765.22;;;11.04;100.00
71791;BME280;59638;52.126;5.434;2023-05-12T03:47:48;101764.38;;;11.03;100.00
71791;BME280;59638;52.126;5.434;2023-05-12T03:50:15;101769.66;;;11.03;100.00
71791;BME280;59638;52.126;5.434;2023-05-12T03:52:41;101766.03;;;11.04;100.00
71791;BME280;59638;52.126;5.434;2023-05-12T03:55:08;101776.81;;;11.01;100.00
71791;BME280;59638;52.126;5.434;2023-05-12T03:57:35;101761.72;;;11.03;100.00
71791;BME280;59638;52.126;5.434;2023-05-12T04:00:06;101764.13;;;11.06;100.00
71791;BME280;59638;52.126;5.434;2023-05-12T04:02:32;101764.94;;;11.07;100.00
71791;BME280;59638;52.126;5.434;2023-05-12T04:04:59;101764.81;;;11.08;100.00
71791;BME280;59638;52.126;5.434;2023-05-12T04:07:25;101766.41;;;11.11;100.00
71791;BME280;59638;52.126;5.434;2023-05-12T04:09:52;101761.97;;;11.11;100.00
71791;BME280;59638;52.126;5.434;2023-05-12T04:12:18;101761.00;;;11.12;100.00
71791;BME280;59638;52.126;5.434;2023-05-12T04:14:44;101762.47;;;11.16;100.00
71791;BME280;59638;52.126;5.434;2023-05-12T04:17:11;101773.50;;;11.22;100.00
71791;BME280;59638;52.126;5.434;2023-05-12T04:19:37;101778.78;;;11.22;100.00
71791;BME280;59638;52.126;5.434;2023-05-12T04:22:04;101773.41;;;11.23;100.00
71791;BME280;59638;52.126;5.434;2023-05-12T04:24:30;101775.66;;;11.28;100.00
71791;BME280;59638;52.126;5.434;2023-05-12T04:26:57;101778.31;;;11.28;100.00
71791;BME280;59638;52.126;5.434;2023-05-12T04:29:23;101777.25;;;11.30;100.00
71791;BME280;59638;52.126;5.434;2023-05-12T04:31:49;101782.41;;;11.32;100.00
71791;BME280;59638;52.126;5.434;2023-05-12T04:34:16;101779.75;;;11.32;100.00
71791;BME280;59638;52.126;5.434;2023-05-12T04:36:42;101781.44;;;11.33;100.00
71791;BME280;59638;52.126;5.434;2023-05-12T04:39:09;101782.88;;;11.37;100.00
71791;BME280;59638;52.126;5.434;2023-05-12T04:41:35;101780.34;;;11.35;100.00
71791;BME280;59638;52.126;5.434;2023-05-12T04:44:01;101787.22;;;11.38;100.00
71791;BME280;59638;52.126;5.434;2023-05-12T04:46:28;101788.75;;;11.40;100.00
71791;BME280;59638;52.126;5.434;2023-05-12T04:48:54;101773.50;;;11.44;100.00
71791;BME280;59638;52.126;5.434;2023-05-12T04:51:21;101792.72;;;11.46;100.00
71791;BME280;59638;52.126;5.434;2023-05-12T04:53:47;101791.06;;;11.45;100.00
71791;BME280;59638;52.126;5.434;2023-05-12T04:56:14;101795.25;;;11.48;100.00
71791;BME280;59638;52.126;5.434;2023-05-12T04:58:40;101798.63;;;11.50;100.00
71791;BME280;59638;52.126;5.434;2023-05-12T05:01:07;101803.53;;;11.54;100.00
71791;BME280;59638;52.126;5.434;2023-05-12T05:03:33;101809.56;;;11.56;100.00
71791;BME280;59638;52.126;5.434;2023-05-12T05:06:00;101812.09;;;11.58;100.00
71791;BME280;59638;52.126;5.434;2023-05-12T05:08:26;101819.19;;;11.57;100.00
71791;BME280;59638;52.126;5.434;2023-05-12T05:10:53;101816.28;;;11.60;100.00
71791;BME280;59638;52.126;5.434;2023-05-12T05:13:19;101816.06;;;11.63;100.00
71791;BME280;59638;52.126;5.434;2023-05-12T05:15:52;101824.72;;;11.65;100.00
71791;BME280;59638;52.126;5.434;2023-05-12T05:18:19;101824.22;;;11.71;100.00
71791;BME280;59638;52.126;5.434;2023-05-12T05:20:49;101830.22;;;11.74;100.00
71791;BME280;59638;52.126;5.434;2023-05-12T05:23:23;101832.38;;;11.80;100.00
71791;BME280;59638;52.126;5.434;2023-05-12T05:25:49;101828.72;;;11.82;100.00
71791;BME280;59638;52.126;5.434;2023-05-12T05:28:16;101836.38;;;11.85;100.00
71791;BME280;59638;52.126;5.434;2023-05-12T05:30:43;101838.78;;;11.88;100.00
71791;BME280;59638;52.126;5.434;2023-05-12T05:33:09;101832.41;;;11.91;100.00
71791;BME280;59638;52.126;5.434;2023-05-12T05:35:37;101834.59;;;11.97;100.00
71791;BME280;59638;52.126;5.434;2023-05-12T05:38:04;101826.25;;;12.02;100.00
71791;BME280;59638;52.126;5.434;2023-05-12T05:40:30;101832.88;;;12.07;100.00
71791;BME280;59638;52.126;5.434;2023-05-12T05:43:14;101828.31;;;12.09;100.00
71791;BME280;59638;52.126;5.434;2023-05-12T05:45:40;101833.34;;;12.12;100.00
71791;BME280;59638;52.126;5.434;2023-05-12T05:48:07;101834.78;;;12.16;100.00
71791;BME280;59638;52.126;5.434;2023-05-12T05:50:33;101840.78;;;12.18;100.00
71791;BME280;59638;52.126;5.434;2023-05-12T05:53:00;101848.72;;;12.18;100.00
71791;BME280;59638;52.126;5.434;2023-05-12T05:55:26;101848.72;;;12.18;100.00
71791;BME280;59638;52.126;5.434;2023-05-12T05:57:53;101857.16;;;12.23;100.00
71791;BME280;59638;52.126;5.434;2023-05-12T06:00:19;101858.84;;;12.24;100.00
71791;BME280;59638;52.126;5.434;2023-05-12T06:02:46;101853.28;;;12.28;100.00
71791;BME280;59638;52.126;5.434;2023-05-12T06:05:13;101859.78;;;12.35;100.00
71791;BME280;59638;52.126;5.434;2023-05-12T06:07:39;101860.34;;;12.38;100.00
71791;BME280;59638;52.126;5.434;2023-05-12T06:10:06;101862.66;;;12.43;100.00
71791;BME280;59638;52.126;5.434;2023-05-12T06:12:33;101865.75;;;12.48;100.00
71791;BME280;59638;52.126;5.434;2023-05-12T06:14:59;101866.94;;;12.55;100.00
71791;BME280;59638;52.126;5.434;2023-05-12T06:17:26;101862.81;;;12.62;100.00
71791;BME280;59638;52.126;5.434;2023-05-12T06:19:52;101873.03;;;12.67;100.00
71791;BME280;59638;52.126;5.434;2023-05-12T06:22:19;101876.50;;;12.67;100.00
71791;BME280;59638;52.126;5.434;2023-05-12T06:24:45;101876.00;;;12.73;100.00
71791;BME280;59638;52.126;5.434;2023-05-12T06:27:11;101881.75;;;12.90;100.00
71791;BME280;59638;52.126;5.434;2023-05-12T06:29:38;101878.78;;;13.04;100.00
71791;BME280;59638;52.126;5.434;2023-05-12T06:32:04;101879.75;;;13.03;100.00
71791;BME280;59638;52.126;5.434;2023-05-12T06:34:31;101886.13;;;13.00;100.00
71791;BME280;59638;52.126;5.434;2023-05-12T06:36:58;101884.84;;;12.95;100.00
71791;BME280;59638;52.126;5.434;2023-05-12T06:39:24;101882.91;;;12.97;100.00
71791;BME280;59638;52.126;5.434;2023-05-12T06:41:50;101888.91;;;12.99;100.00
71791;BME280;59638;52.126;5.434;2023-05-12T06:44:17;101894.69;;;13.04;100.00
71791;BME280;59638;52.126;5.434;2023-05-12T06:46:43;101898.88;;;13.06;100.00
71791;BME280;59638;52.126;5.434;2023-05-12T06:49:10;101899.47;;;13.10;100.00
71791;BME280;59638;52.126;5.434;2023-05-12T06:51:36;101900.63;;;13.17;100.00
71791;BME280;59638;52.126;5.434;2023-05-12T06:54:03;101906.56;;;13.21;100.00
71791;BME280;59638;52.126;5.434;2023-05-12T06:56:29;101904.75;;;13.21;100.00
71791;BME280;59638;52.126;5.434;2023-05-12T06:58:56;101906.28;;;13.24;100.00
71791;BME280;59638;52.126;5.434;2023-05-12T07:01:28;101913.59;;;13.31;100.00
71791;BME280;59638;52.126;5.434;2023-05-12T07:03:56;101907.25;;;13.44;100.00
71791;BME280;59638;52.126;5.434;2023-05-12T07:06:23;101913.47;;;13.54;100.00
71791;BME280;59638;52.126;5.434;2023-05-12T07:08:50;101903.91;;;13.72;100.00
71791;BME280;59638;52.126;5.434;2023-05-12T07:11:16;101907.91;;;13.87;100.00
71791;BME280;59638;52.126;5.434;2023-05-12T07:13:49;101906.75;;;14.11;100.00
71791;BME280;59638;52.126;5.434;2023-05-12T07:16:16;101917.16;;;14.33;100.00
71791;BME280;59638;52.126;5.434;2023-05-12T07:18:44;101911.34;;;14.59;100.00
71791;BME280;59638;52.126;5.434;2023-05-12T07:21:11;101906.78;;;14.80;100.00
71791;BME280;59638;52.126;5.434;2023-05-12T07:23:38;101913.78;;;15.01;100.00
71791;BME280;59638;52.126;5.434;2023-05-12T07:26:05;101910.66;;;15.24;100.00
71791;BME280;59638;52.126;5.434;2023-05-12T07:28:34;101916.13;;;15.33;100.00
71791;BME280;59638;52.126;5.434;2023-05-12T07:31:05;101914.13;;;15.44;100.00
71791;BME280;59638;52.126;5.434;2023-05-12T07:33:33;101916.38;;;15.59;100.00
71791;BME280;59638;52.126;5.434;2023-05-12T07:36:00;101921.25;;;15.73;100.00
71791;BME280;59638;52.126;5.434;2023-05-12T07:38:27;101916.88;;;15.82;100.00
71791;BME280;59638;52.126;5.434;2023-05-12T07:40:54;101913.19;;;16.47;100.00
71791;BME280;59638;52.126;5.434;2023-05-12T07:43:20;101916.19;;;17.16;100.00
71791;BME280;59638;52.126;5.434;2023-05-12T07:45:46;101919.41;;;17.45;100.00
71791;BME280;59638;52.126;5.434;2023-05-12T07:48:13;101915.56;;;17.65;100.00
71791;BME280;59638;52.126;5.434;2023-05-12T07:50:39;101917.75;;;17.96;100.00
71791;BME280;59638;52.126;5.434;2023-05-12T07:53:06;101923.50;;;18.09;100.00
71791;BME280;59638;52.126;5.434;2023-05-12T07:55:32;101917.22;;;17.92;97.91
71791;BME280;59638;52.126;5.434;2023-05-12T07:57:59;101934.47;;;17.28;100.00
71791;BME280;59638;52.126;5.434;2023-05-12T08:00:26;101940.97;;;17.26;100.00
71791;BME280;59638;52.126;5.434;2023-05-12T08:02:54;101938.34;;;17.34;100.00
71791;BME280;59638;52.126;5.434;2023-05-12T08:05:21;101933.03;;;17.60;100.00
71791;BME280;59638;52.126;5.434;2023-05-12T08:07:48;101926.94;;;18.02;97.99
71791;BME280;59638;52.126;5.434;2023-05-12T08:10:15;101926.56;;;18.31;97.99
71791;BME280;59638;52.126;5.434;2023-05-12T08:12:41;101930.75;;;18.92;97.68
71791;BME280;59638;52.126;5.434;2023-05-12T08:15:08;101931.09;;;19.29;94.27
71791;BME280;59638;52.126;5.434;2023-05-12T08:17:35;101932.75;;;19.06;99.40
71791;BME280;59638;52.126;5.434;2023-05-12T08:20:02;101937.06;;;19.80;91.54
71791;BME280;59638;52.126;5.434;2023-05-12T08:22:35;101929.25;;;20.80;87.00
71791;BME280;59638;52.126;5.434;2023-05-12T08:25:01;101934.13;;;20.46;86.53
71791;BME280;59638;52.126;5.434;2023-05-12T08:27:28;101927.19;;;20.59;84.72
71791;BME280;59638;52.126;5.434;2023-05-12T08:29:54;101944.97;;;20.21;87.51
71791;BME280;59638;52.126;5.434;2023-05-12T08:32:21;101932.22;;;20.23;84.72
71791;BME280;59638;52.126;5.434;2023-05-12T08:34:47;101936.94;;;20.13;84.42
71791;BME280;59638;52.126;5.434;2023-05-12T08:37:14;101937.78;;;19.58;91.92
71791;BME280;59638;52.126;5.434;2023-05-12T08:39:40;101948.81;;;19.55;89.25
71791;BME280;59638;52.126;5.434;2023-05-12T08:42:17;101945.78;;;19.66;87.84
71791;BME280;59638;52.126;5.434;2023-05-12T08:44:47;101951.31;;;20.28;81.18
71791;BME280;59638;52.126;5.434;2023-05-12T08:47:17;101946.19;;;20.81;79.24
71791;BME280;59638;52.126;5.434;2023-05-12T08:49:44;101954.50;;;21.84;80.21
71791;BME280;59638;52.126;5.434;2023-05-12T08:52:11;101947.34;;;22.50;68.19
71791;BME280;59638;52.126;5.434;2023-05-12T08:54:39;101955.75;;;22.11;72.36
71791;BME280;59638;52.126;5.434;2023-05-12T08:57:17;101964.25;;;21.10;79.95
71791;BME280;59638;52.126;5.434;2023-05-12T08:59:45;101955.47;;;21.39;80.07
71791;BME280;59638;52.126;5.434;2023-05-12T09:02:13;101950.22;;;23.28;69.85
71791;BME280;59638;52.126;5.434;2023-05-12T09:04:39;101956.00;;;24.15;60.76
71791;BME280;59638;52.126;5.434;2023-05-12T09:07:06;101954.09;;;24.44;66.15
71791;BME280;59638;52.126;5.434;2023-05-12T09:09:32;101962.22;;;24.16;70.97
71791;BME280;59638;52.126;5.434;2023-05-12T09:12:02;101963.63;;;24.05;65.10
71791;BME280;59638;52.126;5.434;2023-05-12T09:14:33;101968.38;;;22.62;70.71
71791;BME280;59638;52.126;5.434;2023-05-12T09:17:02;101974.44;;;21.75;73.07
71791;BME280;59638;52.126;5.434;2023-05-12T09:19:29;101969.81;;;21.31;72.16
71791;BME280;59638;52.126;5.434;2023-05-12T09:21:57;101976.84;;;20.86;78.75
71791;BME280;59638;52.126;5.434;2023-05-12T09:24:37;101971.97;;;21.36;77.45
71791;BME280;59638;52.126;5.434;2023-05-12T09:27:05;101976.47;;;21.12;72.62
71791;BME280;59638;52.126;5.434;2023-05-12T09:29:32;101970.94;;;20.60;78.58
71791;BME280;59638;52.126;5.434;2023-05-12T09:32:10;101977.16;;;20.21;77.95
71791;BME280;59638;52.126;5.434;2023-05-12T09:34:36;101981.56;;;19.98;73.85
71791;BME280;59638;52.126;5.434;2023-05-12T09:37:06;101984.28;;;19.73;76.78
71791;BME280;59638;52.126;5.434;2023-05-12T09:39:33;101992.34;;;19.81;76.36
71791;BME280;59638;52.126;5.434;2023-05-12T09:42:00;101983.44;;;19.73;73.42
71791;BME280;59638;52.126;5.434;2023-05-12T09:44:26;101982.94;;;19.53;73.68
71791;BME280;59638;52.126;5.434;2023-05-12T09:47:04;101988.13;;;19.79;76.20
71791;BME280;59638;52.126;5.434;2023-05-12T09:49:31;101993.91;;;20.07;71.64
71791;BME280;59638;52.126;5.434;2023-05-12T09:51:58;101987.59;;;19.92;78.40
71791;BME280;59638;52.126;5.434;2023-05-12T09:54:29;101984.78;;;20.72;72.68
71791;BME280;59638;52.126;5.434;2023-05-12T09:57:01;101996.25;;;22.24;69.73
71791;BME280;59638;52.126;5.434;2023-05-12T09:59:30;101996.66;;;23.51;63.37
71791;BME280;59638;52.126;5.434;2023-05-12T10:01:59;101989.19;;;24.44;59.60
71791;BME280;59638;52.126;5.434;2023-05-12T10:04:27;101991.59;;;25.00;56.90
71791;BME280;59638;52.126;5.434;2023-05-12T10:06:56;101989.47;;;24.82;58.56
71791;BME280;59638;52.126;5.434;2023-05-12T10:09:30;101993.63;;;24.24;61.63
71791;BME280;59638;52.126;5.434;2023-05-12T10:12:02;101999.50;;;23.99;57.75
71791;BME280;59638;52.126;5.434;2023-05-12T10:14:30;101990.59;;;23.71;59.46
71791;BME280;59638;52.126;5.434;2023-05-12T10:16:58;101992.09;;;24.14;57.07
71791;BME280;59638;52.126;5.434;2023-05-12T10:19:25;101990.44;;;23.51;58.54
71791;BME280;59638;52.126;5.434;2023-05-12T10:21:55;101998.13;;;22.24;64.17
71791;BME280;59638;52.126;5.434;2023-05-12T10:24:24;101997.09;;;22.40;62.56
71791;BME280;59638;52.126;5.434;2023-05-12T10:26:55;101999.78;;;22.25;62.24
71791;BME280;59638;52.126;5.434;2023-05-12T10:29:23;101988.56;;;22.87;59.89
71791;BME280;59638;52.126;5.434;2023-05-12T10:31:55;101983.44;;;23.35;57.92
71791;BME280;59638;52.126;5.434;2023-05-12T10:34:22;101986.22;;;23.70;57.33
71791;BME280;59638;52.126;5.434;2023-05-12T10:36:56;101991.19;;;24.01;58.17
71791;BME280;59638;52.126;5.434;2023-05-12T10:39:28;101987.88;;;25.01;54.48
71791;BME280;59638;52.126;5.434;2023-05-12T10:42:05;101987.09;;;25.20;55.75
71791;BME280;59638;52.126;5.434;2023-05-12T10:44:32;101981.28;;;25.30;53.22
71791;BME280;59638;52.126;5.434;2023-05-12T10:46:58;101991.56;;;26.19;54.21
71791;BME280;59638;52.126;5.434;2023-05-12T10:49:38;101987.50;;;25.97;51.52
71791;BME280;59638;52.126;5.434;2023-05-12T10:52:05;101998.34;;;24.15;53.40
71791;BME280;59638;52.126;5.434;2023-05-12T10:54:40;101989.59;;;25.29;53.80
71791;BME280;59638;52.126;5.434;2023-05-12T10:57:15;101994.59;;;25.45;51.57
71791;BME280;59638;52.126;5.434;2023-05-12T10:59:49;101996.06;;;24.53;52.64
71791;BME280;59638;52.126;5.434;2023-05-12T11:02:22;101984.59;;;25.52;51.47
71791;BME280;59638;52.126;5.434;2023-05-12T11:05:03;101987.09;;;25.34;50.48
71791;BME280;59638;52.126;5.434;2023-05-12T11:07:35;101985.44;;;25.72;49.91
71791;BME280;59638;52.126;5.434;2023-05-12T11:10:03;101990.22;;;25.90;47.59
71791;BME280;59638;52.126;5.434;2023-05-12T11:12:33;101988.28;;;26.04;47.92
71791;BME280;59638;52.126;5.434;2023-05-12T11:15:02;101990.00;;;25.39;48.76
71791;BME280;59638;52.126;5.434;2023-05-12T11:17:29;101994.59;;;25.18;49.16
71791;BME280;59638;52.126;5.434;2023-05-12T11:19:56;101994.97;;;24.41;50.74
71791;BME280;59638;52.126;5.434;2023-05-12T11:22:23;101998.03;;;23.69;51.81
71791;BME280;59638;52.126;5.434;2023-05-12T11:24:50;101997.78;;;23.42;52.83
71791;BME280;59638;52.126;5.434;2023-05-12T11:27:19;102001.81;;;23.25;51.91
71791;BME280;59638;52.126;5.434;2023-05-12T11:29:59;101999.59;;;22.77;56.24
71791;BME280;59638;52.126;5.434;2023-05-12T11:32:26;102001.31;;;22.64;56.65
71791;BME280;59638;52.126;5.434;2023-05-12T11:34:53;102000.91;;;23.18;52.06
71791;BME280;59638;52.126;5.434;2023-05-12T11:37:21;101994.63;;;23.32;51.68
71791;BME280;59638;52.126;5.434;2023-05-12T11:39:47;102002.66;;;23.53;52.30
71791;BME280;59638;52.126;5.434;2023-05-12T11:42:14;101992.81;;;23.39;53.25
71791;BME280;59638;52.126;5.434;2023-05-12T11:44:48;102005.22;;;23.90;52.66
71791;BME280;59638;52.126;5.434;2023-05-12T11:47:16;101990.75;;;23.91;51.90
71791;BME280;59638;52.126;5.434;2023-05-12T11:49:49;102002.16;;;23.65;53.36
71791;BME280;59638;52.126;5.434;2023-05-12T11:52:16;101995.69;;;23.87;51.67
71791;BME280;59638;52.126;5.434;2023-05-12T11:54:54;101992.16;;;24.28;50.15
71791;BME280;59638;52.126;5.434;2023-05-12T11:57:26;102000.59;;;24.11;52.49
71791;BME280;59638;52.126;5.434;2023-05-12T12:00:02;101994.16;;;23.56;54.12
71791;BME280;59638;52.126;5.434;2023-05-12T12:02:29;101997.91;;;23.55;52.65
71791;BME280;59638;52.126;5.434;2023-05-12T12:04:56;101992.22;;;23.65;52.45
71791;BME280;59638;52.126;5.434;2023-05-12T12:07:33;101999.16;;;23.81;51.29
71791;BME280;59638;52.126;5.434;2023-05-12T12:10:15;101998.63;;;23.43;52.37
71791;BME280;59638;52.126;5.434;2023-05-12T12:12:43;102012.03;;;22.42;53.65
71791;BME280;59638;52.126;5.434;2023-05-12T12:15:10;102010.75;;;22.09;54.54
71791;BME280;59638;52.126;5.434;2023-05-12T12:17:37;102010.84;;;22.15;54.45
71791;BME280;59638;52.126;5.434;2023-05-12T12:20:06;102018.72;;;22.46;55.49
71791;BME280;59638;52.126;5.434;2023-05-12T12:22:33;102015.09;;;22.24;55.98
71791;BME280;59638;52.126;5.434;2023-05-12T12:25:00;102005.94;;;22.19;58.64
71791;BME280;59638;52.126;5.434;2023-05-12T12:27:27;102009.91;;;22.23;56.69
71791;BME280;59638;52.126;5.434;2023-05-12T12:29:54;102010.28;;;23.50;52.79
71791;BME280;59638;52.126;5.434;2023-05-12T12:32:20;102005.09;;;23.48;51.57
71791;BME280;59638;52.126;5.434;2023-05-12T12:34:47;102002.72;;;23.88;49.79
71791;BME280;59638;52.126;5.434;2023-05-12T12:37:14;102004.25;;;23.20;50.75
71791;BME280;59638;52.126;5.434;2023-05-12T12:39:41;102009.88;;;23.03;52.95
71791;BME280;59638;52.126;5.434;2023-05-12T12:42:07;102011.28;;;23.21;52.42
71791;BME280;59638;52.126;5.434;2023-05-12T12:44:34;102009.00;;;23.18;52.30
71791;BME280;59638;52.126;5.434;2023-05-12T12:47:00;102002.88;;;23.09;54.64